sensor_id;sensor_type;location;lat;lon;timestamp;temperature;humidity
1155;DHT22;566;48.414;9.118;2023-08-08T00:00:10;10.70;97.60
1155;DHT22;566;48.414;9.118;2023-08-08T00:03:02;10.70;98.00
1155;DHT22;566;48.414;9.118;2023-08-08T00:09:29;10.50;97.10
1155;DHT22;566;48.414;9.118;2023-08-08T00:12:18;10.60;97.40
1155;DHT22;566;48.414;9.118;2023-08-08T00:14:52;10.80;98.00
1155;DHT22;566;48.414;9.118;2023-08-08T00:17:52;10.90;98.00
1155;DHT22;566;48.414;9.118;2023-08-08T00:20:32;11.00;98.00
1155;DHT22;566;48.414;9.118;2023-08-08T00:23:23;11.20;98.00
1155;DHT22;566;48.414;9.118;2023-08-08T00:29:24;11.50;98.00
1155;DHT22;566;48.414;9.118;2023-08-08T00:39:40;12.50;98.00
1155;DHT22;566;48.414;9.118;2023-08-08T00:42:50;12.70;97.70
1155;DHT22;566;48.414;9.118;2023-08-08T03:49:04;13.70;93.00
1155;DHT22;566;48.414;9.118;2023-08-08T03:52:04;13.80;92.70
1155;DHT22;566;48.414;9.118;2023-08-08T03:59:00;13.80;93.10
1155;DHT22;566;48.414;9.118;2023-08-08T04:02:01;13.60;93.70
1155;DHT22;566;48.414;9.118;2023-08-08T04:05:29;13.50;93.70
1155;DHT22;566;48.414;9.118;2023-08-08T04:11:08;13.60;93.40
1155;DHT22;566;48.414;9.118;2023-08-08T04:13:51;13.60;93.80
1155;DHT22;566;48.414;9.118;2023-08-08T04:16:20;13.60;93.60
1155;DHT22;566;48.414;9.118;2023-08-08T04:19:14;13.50;94.00
1155;DHT22;566;48.414;9.118;2023-08-08T04:21:51;13.60;93.00
1155;DHT22;566;48.414;9.118;2023-08-08T04:24:28;13.70;92.80
1155;DHT22;566;48.414;9.118;2023-08-08T04:26:53;13.80;91.90
1155;DHT22;566;48.414;9.118;2023-08-08T04:29:24;13.90;91.80
1155;DHT22;566;48.414;9.118;2023-08-08T04:31:55;13.90;91.80
1155;DHT22;566;48.414;9.118;2023-08-08T04:34:48;13.90;91.70
1155;DHT22;566;48.414;9.118;2023-08-08T04:37:21;13.80;91.80
1155;DHT22;566;48.414;9.118;2023-08-08T04:39:50;13.80;92.00
1155;DHT22;566;48.414;9.118;2023-08-08T04:42:18;13.80;92.50
1155;DHT22;566;48.414;9.118;2023-08-08T04:44:46;13.80;92.10
1155;DHT22;566;48.414;9.118;2023-08-08T04:47:34;13.90;91.60
1155;DHT22;566;48.414;9.118;2023-08-08T04:54:05;14.00;91.40
1155;DHT22;566;48.414;9.118;2023-08-08T05:03:56;14.20;90.80
1155;DHT22;566;48.414;9.118;2023-08-08T05:06:29;14.20;90.90
1155;DHT22;566;48.414;9.118;2023-08-08T05:09:06;14.10;91.00
1155;DHT22;566;48.414;9.118;2023-08-08T05:11:48;14.10;91.20
1155;DHT22;566;48.414;9.118;2023-08-08T05:14:14;14.10;90.90
1155;DHT22;566;48.414;9.118;2023-08-08T05:16:42;14.10;91.00
1155;DHT22;566;48.414;9.118;2023-08-08T05:19:10;14.10;91.30
1155;DHT22;566;48.414;9.118;2023-08-08T05:21:43;14.10;91.30
1155;DHT22;566;48.414;9.118;2023-08-08T05:24:09;14.10;91.60
1155;DHT22;566;48.414;9.118;2023-08-08T05:26:35;14.10;91.50
1155;DHT22;566;48.414;9.118;2023-08-08T05:29:00;14.10;92.20
1155;DHT22;566;48.414;9.118;2023-08-08T05:31:26;14.10;91.80
1155;DHT22;566;48.414;9.118;2023-08-08T05:33:51;14.10;91.30
1155;DHT22;566;48.414;9.118;2023-08-08T05:36:17;14.20;91.40
1155;DHT22;566;48.414;9.118;2023-08-08T05:38:43;14.20;91.10
1155;DHT22;566;48.414;9.118;2023-08-08T05:41:08;14.20;91.10
1155;DHT22;566;48.414;9.118;2023-08-08T05:43:35;14.30;91.10
1155;DHT22;566;48.414;9.118;2023-08-08T05:46:02;14.40;90.80
1155;DHT22;566;48.414;9.118;2023-08-08T05:48:27;14.40;91.50
1155;DHT22;566;48.414;9.118;2023-08-08T05:50:53;14.40;91.00
1155;DHT22;566;48.414;9.118;2023-08-08T05:53:19;14.40;90.60
1155;DHT22;566;48.414;9.118;2023-08-08T05:55:44;14.60;90.60
1155;DHT22;566;48.414;9.118;2023-08-08T05:58:12;14.60;90.40
1155;DHT22;566;48.414;9.118;2023-08-08T06:00:40;14.70;89.90
1155;DHT22;566;48.414;9.118;2023-08-08T06:03:05;14.90;89.80
1155;DHT22;566;48.414;9.118;2023-08-08T06:05:32;15.00;89.00
1155;DHT22;566;48.414;9.118;2023-08-08T06:07:57;15.00;89.40
1155;DHT22;566;48.414;9.118;2023-08-08T06:10:23;15.00;89.40
1155;DHT22;566;48.414;9.118;2023-08-08T06:12:50;14.90;89.60
1155;DHT22;566;48.414;9.118;2023-08-08T06:15:16;14.90;89.30
1155;DHT22;566;48.414;9.118;2023-08-08T06:17:41;15.00;89.10
1155;DHT22;566;48.414;9.118;2023-08-08T06:20:07;15.00;88.90
1155;DHT22;566;48.414;9.118;2023-08-08T06:22:34;15.00;89.00
1155;DHT22;566;48.414;9.118;2023-08-08T06:25:00;15.10;89.00
1155;DHT22;566;48.414;9.118;2023-08-08T06:27:26;15.10;89.40
1155;DHT22;566;48.414;9.118;2023-08-08T06:29:51;15.20;88.90
1155;DHT22;566;48.414;9.118;2023-08-08T06:32:17;15.30;89.30
1155;DHT22;566;48.414;9.118;2023-08-08T06:34:42;15.30;88.60
1155;DHT22;566;48.414;9.118;2023-08-08T06:37:08;15.30;89.00
1155;DHT22;566;48.414;9.118;2023-08-08T06:39:34;15.30;88.40
1155;DHT22;566;48.414;9.118;2023-08-08T06:42:00;15.40;89.00
1155;DHT22;566;48.414;9.118;2023-08-08T06:44:26;15.50;89.30
1155;DHT22;566;48.414;9.118;2023-08-08T06:46:52;15.60;88.10
1155;DHT22;566;48.414;9.118;2023-08-08T06:49:17;15.70;87.30
1155;DHT22;566;48.414;9.118;2023-08-08T06:51:43;15.60;88.20
1155;DHT22;566;48.414;9.118;2023-08-08T06:54:09;15.70;88.20
1155;DHT22;566;48.414;9.118;2023-08-08T06:56:34;15.90;88.00
1155;DHT22;566;48.414;9.118;2023-08-08T06:59:00;15.80;87.70
1155;DHT22;566;48.414;9.118;2023-08-08T07:01:25;15.80;87.50
1155;DHT22;566;48.414;9.118;2023-08-08T07:03:51;15.90;87.80
1155;DHT22;566;48.414;9.118;2023-08-08T07:06:18;16.00;87.30
1155;DHT22;566;48.414;9.118;2023-08-08T07:08:43;16.20;87.20
1155;DHT22;566;48.414;9.118;2023-08-08T07:11:09;16.40;87.20
1155;DHT22;566;48.414;9.118;2023-08-08T07:13:35;16.40;85.90
1155;DHT22;566;48.414;9.118;2023-08-08T07:16:00;16.40;86.00
1155;DHT22;566;48.414;9.118;2023-08-08T07:18:26;16.50;86.60
1155;DHT22;566;48.414;9.118;2023-08-08T07:20:52;16.50;86.00
1155;DHT22;566;48.414;9.118;2023-08-08T07:23:18;16.60;86.20
1155;DHT22;566;48.414;9.118;2023-08-08T07:25:45;16.90;86.10
1155;DHT22;566;48.414;9.118;2023-08-08T07:28:11;17.30;85.10
1155;DHT22;566;48.414;9.118;2023-08-08T07:30:36;17.50;83.40
1155;DHT22;566;48.414;9.118;2023-08-08T07:33:02;17.30;83.80
1155;DHT22;566;48.414;9.118;2023-08-08T07:35:27;17.20;84.30
1155;DHT22;566;48.414;9.118;2023-08-08T07:37:53;16.80;84.30
1155;DHT22;566;48.414;9.118;2023-08-08T07:40:20;16.60;85.10
1155;DHT22;566;48.414;9.118;2023-08-08T07:42:47;16.70;85.70
1155;DHT22;566;48.414;9.118;2023-08-08T07:45:13;16.70;85.50
1155;DHT22;566;48.414;9.118;2023-08-08T07:47:39;16.80;86.00
1155;DHT22;566;48.414;9.118;2023-08-08T07:50:05;17.20;85.00
1155;DHT22;566;48.414;9.118;2023-08-08T07:52:34;17.60;83.60
1155;DHT22;566;48.414;9.118;2023-08-08T07:55:00;18.20;82.50
1155;DHT22;566;48.414;9.118;2023-08-08T07:57:27;18.60;80.80
1155;DHT22;566;48.414;9.118;2023-08-08T07:59:52;19.20;79.90
1155;DHT22;566;48.414;9.118;2023-08-08T08:02:18;19.90;78.50
1155;DHT22;566;48.414;9.118;2023-08-08T08:04:43;20.30;76.70
1155;DHT22;566;48.414;9.118;2023-08-08T08:07:09;20.50;77.10
1155;DHT22;566;48.414;9.118;2023-08-08T08:09:35;21.20;76.10
1155;DHT22;566;48.414;9.118;2023-08-08T08:12:04;21.50;75.20
1155;DHT22;566;48.414;9.118;2023-08-08T08:14:29;21.60;74.50
1155;DHT22;566;48.414;9.118;2023-08-08T08:16:55;21.30;74.20
1155;DHT22;566;48.414;9.118;2023-08-08T08:19:21;20.50;74.30
1155;DHT22;566;48.414;9.118;2023-08-08T08:21:46;19.60;76.90
1155;DHT22;566;48.414;9.118;2023-08-08T08:24:12;19.20;78.00
1155;DHT22;566;48.414;9.118;2023-08-08T08:26:37;19.00;78.80
1155;DHT22;566;48.414;9.118;2023-08-08T08:29:06;19.00;78.90
1155;DHT22;566;48.414;9.118;2023-08-08T08:31:32;18.90;78.40
1155;DHT22;566;48.414;9.118;2023-08-08T08:33:58;18.70;79.50
1155;DHT22;566;48.414;9.118;2023-08-08T08:36:23;18.60;80.50
1155;DHT22;566;48.414;9.118;2023-08-08T08:38:51;18.90;79.90
1155;DHT22;566;48.414;9.118;2023-08-08T08:41:18;19.10;79.50
1155;DHT22;566;48.414;9.118;2023-08-08T08:43:45;19.70;79.10
1155;DHT22;566;48.414;9.118;2023-08-08T08:46:13;19.90;77.30
1155;DHT22;566;48.414;9.118;2023-08-08T08:48:42;19.30;77.20
1155;DHT22;566;48.414;9.118;2023-08-08T08:51:07;18.50;78.10
1155;DHT22;566;48.414;9.118;2023-08-08T08:53:36;18.60;79.30
1155;DHT22;566;48.414;9.118;2023-08-08T08:56:05;18.90;78.20
1155;DHT22;566;48.414;9.118;2023-08-08T08:58:31;19.80;77.40
1155;DHT22;566;48.414;9.118;2023-08-08T09:00:58;20.10;76.50
1155;DHT22;566;48.414;9.118;2023-08-08T09:03:24;19.60;77.00
1155;DHT22;566;48.414;9.118;2023-08-08T09:05:51;19.20;75.90
1155;DHT22;566;48.414;9.118;2023-08-08T09:08:22;19.00;78.10
1155;DHT22;566;48.414;9.118;2023-08-08T09:10:48;19.50;77.80
1155;DHT22;566;48.414;9.118;2023-08-08T09:13:16;19.90;75.10
1155;DHT22;566;48.414;9.118;2023-08-08T09:15:42;20.40;74.10
1155;DHT22;566;48.414;9.118;2023-08-08T09:18:07;20.50;74.00
1155;DHT22;566;48.414;9.118;2023-08-08T09:20:33;20.80;73.80
1155;DHT22;566;48.414;9.118;2023-08-08T09:23:00;20.90;72.70
1155;DHT22;566;48.414;9.118;2023-08-08T09:25:26;21.50;72.00
1155;DHT22;566;48.414;9.118;2023-08-08T09:28:19;21.60;72.60
1155;DHT22;566;48.414;9.118;2023-08-08T09:30:50;22.00;71.30
1155;DHT22;566;48.414;9.118;2023-08-08T09:33:19;21.20;71.60
1155;DHT22;566;48.414;9.118;2023-08-08T09:35:45;21.10;72.70
1155;DHT22;566;48.414;9.118;2023-08-08T09:38:11;21.00;72.70
1155;DHT22;566;48.414;9.118;2023-08-08T09:40:36;20.70;72.90
1155;DHT22;566;48.414;9.118;2023-08-08T09:43:02;21.00;72.00
1155;DHT22;566;48.414;9.118;2023-08-08T09:45:46;21.10;73.30
1155;DHT22;566;48.414;9.118;2023-08-08T09:48:14;21.10;71.70
1155;DHT22;566;48.414;9.118;2023-08-08T09:50:41;21.10;73.20
1155;DHT22;566;48.414;9.118;2023-08-08T09:53:07;21.20;72.80
1155;DHT22;566;48.414;9.118;2023-08-08T09:55:34;21.60;72.50
1155;DHT22;566;48.414;9.118;2023-08-08T09:58:00;21.60;71.40
1155;DHT22;566;48.414;9.118;2023-08-08T10:00:27;21.30;71.00
1155;DHT22;566;48.414;9.118;2023-08-08T10:02:55;21.30;71.10
1155;DHT22;566;48.414;9.118;2023-08-08T10:05:22;20.80;71.90
1155;DHT22;566;48.414;9.118;2023-08-08T10:07:49;20.00;73.90
1155;DHT22;566;48.414;9.118;2023-08-08T10:10:15;20.70;74.60
1155;DHT22;566;48.414;9.118;2023-08-08T10:12:44;21.90;71.90
1155;DHT22;566;48.414;9.118;2023-08-08T10:15:10;22.40;69.80
1155;DHT22;566;48.414;9.118;2023-08-08T10:17:40;21.80;69.10
1155;DHT22;566;48.414;9.118;2023-08-08T10:20:09;21.80;70.50
1155;DHT22;566;48.414;9.118;2023-08-08T10:22:45;21.80;70.70
1155;DHT22;566;48.414;9.118;2023-08-08T10:25:22;21.80;71.00
1155;DHT22;566;48.414;9.118;2023-08-08T10:27:47;22.00;69.90
1155;DHT22;566;48.414;9.118;2023-08-08T10:30:13;22.60;69.30
1155;DHT22;566;48.414;9.118;2023-08-08T10:32:44;23.10;68.20
1155;DHT22;566;48.414;9.118;2023-08-08T10:35:12;22.70;67.20
1155;DHT22;566;48.414;9.118;2023-08-08T10:37:38;22.90;68.50
1155;DHT22;566;48.414;9.118;2023-08-08T10:40:05;22.80;67.10
1155;DHT22;566;48.414;9.118;2023-08-08T10:42:39;22.40;69.20
1155;DHT22;566;48.414;9.118;2023-08-08T10:45:09;22.10;69.70
1155;DHT22;566;48.414;9.118;2023-08-08T10:47:36;22.40;68.40
1155;DHT22;566;48.414;9.118;2023-08-08T10:50:10;22.80;67.60
1155;DHT22;566;48.414;9.118;2023-08-08T10:52:59;22.40;67.20
1155;DHT22;566;48.414;9.118;2023-08-08T10:55:26;22.00;66.60
1155;DHT22;566;48.414;9.118;2023-08-08T10:58:09;22.10;68.40
1155;DHT22;566;48.414;9.118;2023-08-08T11:00:37;22.40;66.70
1155;DHT22;566;48.414;9.118;2023-08-08T11:03:05;21.80;68.10
1155;DHT22;566;48.414;9.118;2023-08-08T11:05:32;21.80;69.20
1155;DHT22;566;48.414;9.118;2023-08-08T11:08:00;21.80;69.20
1155;DHT22;566;48.414;9.118;2023-08-08T11:10:26;22.40;68.00
1155;DHT22;566;48.414;9.118;2023-08-08T11:13:01;22.70;66.40
1155;DHT22;566;48.414;9.118;2023-08-08T11:15:32;22.30;66.60
1155;DHT22;566;48.414;9.118;2023-08-08T11:17:59;23.00;65.90
1155;DHT22;566;48.414;9.118;2023-08-08T11:20:28;23.00;63.20
1155;DHT22;566;48.414;9.118;2023-08-08T11:22:55;22.60;64.50
1155;DHT22;566;48.414;9.118;2023-08-08T11:25:22;22.90;64.30
1155;DHT22;566;48.414;9.118;2023-08-08T11:27:51;22.50;68.00
1155;DHT22;566;48.414;9.118;2023-08-08T11:30:18;22.50;66.30
1155;DHT22;566;48.414;9.118;2023-08-08T11:32:48;22.20;66.10
1155;DHT22;566;48.414;9.118;2023-08-08T11:35:22;21.90;67.90
1155;DHT22;566;48.414;9.118;2023-08-08T11:37:48;21.80;67.80
1155;DHT22;566;48.414;9.118;2023-08-08T11:40:14;21.60;68.70
1155;DHT22;566;48.414;9.118;2023-08-08T11:42:41;22.00;67.70
1155;DHT22;566;48.414;9.118;2023-08-08T11:45:09;22.60;67.40
1155;DHT22;566;48.414;9.118;2023-08-08T11:47:35;23.30;65.80
1155;DHT22;566;48.414;9.118;2023-08-08T11:50:03;23.40;63.90
1155;DHT22;566;48.414;9.118;2023-08-08T11:52:29;22.80;63.30
1155;DHT22;566;48.414;9.118;2023-08-08T11:54:55;21.70;65.00
1155;DHT22;566;48.414;9.118;2023-08-08T11:57:23;21.90;66.80
1155;DHT22;566;48.414;9.118;2023-08-08T11:59:49;21.60;65.90
1155;DHT22;566;48.414;9.118;2023-08-08T12:02:15;21.50;68.40
1155;DHT22;566;48.414;9.118;2023-08-08T12:04:45;22.10;67.40
1155;DHT22;566;48.414;9.118;2023-08-08T12:07:11;22.50;68.00
1155;DHT22;566;48.414;9.118;2023-08-08T12:09:37;23.20;65.30
1155;DHT22;566;48.414;9.118;2023-08-08T12:12:03;22.50;63.50
1155;DHT22;566;48.414;9.118;2023-08-08T12:14:29;22.50;65.90
1155;DHT22;566;48.414;9.118;2023-08-08T12:16:55;23.10;64.00
1155;DHT22;566;48.414;9.118;2023-08-08T12:19:25;22.70;64.00
1155;DHT22;566;48.414;9.118;2023-08-08T12:21:51;22.10;66.60
1155;DHT22;566;48.414;9.118;2023-08-08T12:24:18;22.30;66.30
1155;DHT22;566;48.414;9.118;2023-08-08T12:26:44;22.50;66.80
1155;DHT22;566;48.414;9.118;2023-08-08T12:29:09;22.70;67.00
1155;DHT22;566;48.414;9.118;2023-08-08T12:31:37;23.20;65.30
1155;DHT22;566;48.414;9.118;2023-08-08T12:34:02;23.40;64.70
1155;DHT22;566;48.414;9.118;2023-08-08T12:36:28;23.60;64.50
1155;DHT22;566;48.414;9.118;2023-08-08T12:38:54;23.70;64.00
1155;DHT22;566;48.414;9.118;2023-08-08T12:41:19;23.70;61.30
1155;DHT22;566;48.414;9.118;2023-08-08T12:43:45;23.70;63.40
1155;DHT22;566;48.414;9.118;2023-08-08T12:46:11;23.30;63.20
1155;DHT22;566;48.414;9.118;2023-08-08T12:48:36;23.00;64.00
1155;DHT22;566;48.414;9.118;2023-08-08T12:51:02;23.60;63.80
1155;DHT22;566;48.414;9.118;2023-08-08T12:53:28;24.70;62.50
1155;DHT22;566;48.414;9.118;2023-08-08T12:55:54;24.80;57.60
1155;DHT22;566;48.414;9.118;2023-08-08T12:58:20;24.40;58.80
1155;DHT22;566;48.414;9.118;2023-08-08T13:00:45;23.30;61.10
1155;DHT22;566;48.414;9.118;2023-08-08T13:03:14;23.00;62.00
1155;DHT22;566;48.414;9.118;2023-08-08T13:05:40;23.80;61.40
1155;DHT22;566;48.414;9.118;2023-08-08T13:08:05;25.00;59.10
1155;DHT22;566;48.414;9.118;2023-08-08T13:10:31;26.30;59.50
1155;DHT22;566;48.414;9.118;2023-08-08T13:13:01;26.30;57.50
1155;DHT22;566;48.414;9.118;2023-08-08T13:15:26;25.40;58.40
1155;DHT22;566;48.414;9.118;2023-08-08T13:17:52;24.50;60.60
1155;DHT22;566;48.414;9.118;2023-08-08T13:20:17;24.30;62.00
1155;DHT22;566;48.414;9.118;2023-08-08T13:22:47;23.80;61.40
1155;DHT22;566;48.414;9.118;2023-08-08T13:25:13;23.70;62.80
1155;DHT22;566;48.414;9.118;2023-08-08T13:27:38;24.20;62.50
1155;DHT22;566;48.414;9.118;2023-08-08T13:30:05;25.20;60.70
1155;DHT22;566;48.414;9.118;2023-08-08T13:32:31;25.20;60.20
1155;DHT22;566;48.414;9.118;2023-08-08T13:34:57;24.50;58.30
1155;DHT22;566;48.414;9.118;2023-08-08T13:37:22;24.50;59.30
1155;DHT22;566;48.414;9.118;2023-08-08T13:39:48;24.60;59.00
1155;DHT22;566;48.414;9.118;2023-08-08T13:42:13;24.90;58.50
1155;DHT22;566;48.414;9.118;2023-08-08T13:44:39;25.40;58.00
1155;DHT22;566;48.414;9.118;2023-08-08T13:47:05;25.20;57.50
1155;DHT22;566;48.414;9.118;2023-08-08T13:49:30;25.20;58.30
1155;DHT22;566;48.414;9.118;2023-08-08T13:51:56;25.30;57.90
1155;DHT22;566;48.414;9.118;2023-08-08T13:54:21;25.10;59.80
1155;DHT22;566;48.414;9.118;2023-08-08T13:56:47;24.20;59.60
1155;DHT22;566;48.414;9.118;2023-08-08T13:59:13;24.00;59.90
1155;DHT22;566;48.414;9.118;2023-08-08T14:01:39;23.40;61.70
1155;DHT22;566;48.414;9.118;2023-08-08T14:04:05;22.70;62.90
1155;DHT22;566;48.414;9.118;2023-08-08T14:06:30;22.10;64.50
1155;DHT22;566;48.414;9.118;2023-08-08T14:08:56;21.80;63.90
1155;DHT22;566;48.414;9.118;2023-08-08T14:11:22;21.40;65.20
1155;DHT22;566;48.414;9.118;2023-08-08T14:13:48;20.90;66.60
1155;DHT22;566;48.414;9.118;2023-08-08T14:16:13;20.40;68.30
1155;DHT22;566;48.414;9.118;2023-08-08T14:18:39;20.40;68.70
1155;DHT22;566;48.414;9.118;2023-08-08T14:21:05;20.50;69.30
1155;DHT22;566;48.414;9.118;2023-08-08T14:23:31;20.50;69.40
1155;DHT22;566;48.414;9.118;2023-08-08T14:25:56;20.90;69.90
1155;DHT22;566;48.414;9.118;2023-08-08T14:28:22;21.10;68.60
1155;DHT22;566;48.414;9.118;2023-08-08T14:30:48;22.10;68.00
1155;DHT22;566;48.414;9.118;2023-08-08T14:33:15;22.70;66.10
1155;DHT22;566;48.414;9.118;2023-08-08T14:35:40;22.20;66.80
1155;DHT22;566;48.414;9.118;2023-08-08T14:38:06;22.20;68.30
1155;DHT22;566;48.414;9.118;2023-08-08T14:40:32;23.20;67.10
1155;DHT22;566;48.414;9.118;2023-08-08T14:43:00;23.60;65.40
1155;DHT22;566;48.414;9.118;2023-08-08T14:45:26;22.80;66.30
1155;DHT22;566;48.414;9.118;2023-08-08T14:47:52;21.60;69.00
1155;DHT22;566;48.414;9.118;2023-08-08T14:50:17;21.00;68.70
1155;DHT22;566;48.414;9.118;2023-08-08T14:52:43;20.80;70.80
1155;DHT22;566;48.414;9.118;2023-08-08T14:55:08;21.10;69.60
1155;DHT22;566;48.414;9.118;2023-08-08T14:57:34;21.00;67.90
1155;DHT22;566;48.414;9.118;2023-08-08T15:00:00;21.20;68.90
1155;DHT22;566;48.414;9.118;2023-08-08T15:02:26;21.50;69.30
1155;DHT22;566;48.414;9.118;2023-08-08T15:04:52;21.70;68.70
1155;DHT22;566;48.414;9.118;2023-08-08T15:07:18;21.60;69.10
1155;DHT22;566;48.414;9.118;2023-08-08T15:09:44;21.30;68.60
1155;DHT22;566;48.414;9.118;2023-08-08T15:12:10;20.90;69.20
1155;DHT22;566;48.414;9.118;2023-08-08T15:14:35;20.90;69.80
1155;DHT22;566;48.414;9.118;2023-08-08T15:17:01;21.00;69.90
1155;DHT22;566;48.414;9.118;2023-08-08T15:19:26;21.10;69.00
1155;DHT22;566;48.414;9.118;2023-08-08T15:21:54;21.00;69.30
1155;DHT22;566;48.414;9.118;2023-08-08T15:24:19;20.80;69.50
1155;DHT22;566;48.414;9.118;2023-08-08T15:26:45;20.70;70.30
1155;DHT22;566;48.414;9.118;2023-08-08T15:29:10;20.60;71.50
1155;DHT22;566;48.414;9.118;2023-08-08T15:31:39;20.50;72.20
1155;DHT22;566;48.414;9.118;2023-08-08T15:34:05;20.40;71.80
1155;DHT22;566;48.414;9.118;2023-08-08T15:36:31;20.20;71.90
1155;DHT22;566;48.414;9.118;2023-08-08T15:38:56;20.20;72.20
1155;DHT22;566;48.414;9.118;2023-08-08T15:41:22;20.60;71.90
1155;DHT22;566;48.414;9.118;2023-08-08T15:43:48;21.30;70.90
1155;DHT22;566;48.414;9.118;2023-08-08T15:46:13;21.60;70.50
1155;DHT22;566;48.414;9.118;2023-08-08T15:48:39;21.50;71.30
1155;DHT22;566;48.414;9.118;2023-08-08T15:51:04;21.10;71.80
1155;DHT22;566;48.414;9.118;2023-08-08T15:53:33;20.50;72.90
1155;DHT22;566;48.414;9.118;2023-08-08T15:55:59;20.00;73.30
1155;DHT22;566;48.414;9.118;2023-08-08T15:58:25;19.90;74.50
1155;DHT22;566;48.414;9.118;2023-08-08T16:00:51;19.70;74.30
1155;DHT22;566;48.414;9.118;2023-08-08T16:03:17;19.50;75.10
1155;DHT22;566;48.414;9.118;2023-08-08T16:05:42;19.50;75.00
1155;DHT22;566;48.414;9.118;2023-08-08T16:08:11;19.40;74.80
1155;DHT22;566;48.414;9.118;2023-08-08T16:10:37;19.50;74.90
1155;DHT22;566;48.414;9.118;2023-08-08T16:13:03;19.50;75.00
1155;DHT22;566;48.414;9.118;2023-08-08T16:15:28;19.90;74.70
1155;DHT22;566;48.414;9.118;2023-08-08T16:17:54;20.50;73.70
1155;DHT22;566;48.414;9.118;2023-08-08T16:20:19;20.60;72.70
1155;DHT22;566;48.414;9.118;2023-08-08T16:22:45;21.00;71.70
1155;DHT22;566;48.414;9.118;2023-08-08T16:25:11;22.20;69.60
1155;DHT22;566;48.414;9.118;2023-08-08T16:27:36;22.60;67.80
1155;DHT22;566;48.414;9.118;2023-08-08T16:30:02;22.70;67.70
1155;DHT22;566;48.414;9.118;2023-08-08T16:32:28;22.50;68.40
1155;DHT22;566;48.414;9.118;2023-08-08T16:34:55;22.10;68.80
1155;DHT22;566;48.414;9.118;2023-08-08T16:37:20;21.50;68.70
1155;DHT22;566;48.414;9.118;2023-08-08T16:39:49;21.00;70.50
1155;DHT22;566;48.414;9.118;2023-08-08T16:42:14;21.10;70.50
1155;DHT22;566;48.414;9.118;2023-08-08T16:44:40;21.30;71.50
1155;DHT22;566;48.414;9.118;2023-08-08T16:47:06;21.30;70.80
1155;DHT22;566;48.414;9.118;2023-08-08T16:49:32;21.30;71.60
1155;DHT22;566;48.414;9.118;2023-08-08T16:51:58;20.90;72.50
1155;DHT22;566;48.414;9.118;2023-08-08T16:54:26;21.20;72.80
1155;DHT22;566;48.414;9.118;2023-08-08T16:56:52;22.30;70.20
1155;DHT22;566;48.414;9.118;2023-08-08T16:59:17;23.10;68.50
1155;DHT22;566;48.414;9.118;2023-08-08T17:01:43;24.10;65.60
1155;DHT22;566;48.414;9.118;2023-08-08T17:04:10;23.90;66.50
1155;DHT22;566;48.414;9.118;2023-08-08T17:06:40;22.90;67.90
1155;DHT22;566;48.414;9.118;2023-08-08T17:09:06;21.70;70.00
1155;DHT22;566;48.414;9.118;2023-08-08T17:11:33;20.80;72.60
1155;DHT22;566;48.414;9.118;2023-08-08T17:13:58;20.70;72.80
1155;DHT22;566;48.414;9.118;2023-08-08T17:16:24;20.70;73.30
1155;DHT22;566;48.414;9.118;2023-08-08T17:18:50;20.80;73.60
1155;DHT22;566;48.414;9.118;2023-08-08T17:21:18;20.80;73.90
1155;DHT22;566;48.414;9.118;2023-08-08T17:23:43;20.80;73.30
1155;DHT22;566;48.414;9.118;2023-08-08T17:26:09;20.70;73.30
1155;DHT22;566;48.414;9.118;2023-08-08T17:28:34;20.30;73.60
1155;DHT22;566;48.414;9.118;2023-08-08T17:31:00;20.00;74.60
1155;DHT22;566;48.414;9.118;2023-08-08T17:33:25;19.70;75.40
1155;DHT22;566;48.414;9.118;2023-08-08T17:35:51;19.50;76.70
1155;DHT22;566;48.414;9.118;2023-08-08T17:38:17;19.70;76.40
1155;DHT22;566;48.414;9.118;2023-08-08T17:40:42;19.60;76.70
1155;DHT22;566;48.414;9.118;2023-08-08T17:43:08;19.30;77.60
1155;DHT22;566;48.414;9.118;2023-08-08T17:45:34;19.20;77.90
1155;DHT22;566;48.414;9.118;2023-08-08T17:48:00;19.10;78.40
1155;DHT22;566;48.414;9.118;2023-08-08T17:50:25;19.10;78.60
1155;DHT22;566;48.414;9.118;2023-08-08T17:52:51;19.00;79.00
1155;DHT22;566;48.414;9.118;2023-08-08T17:55:17;18.80;79.20
1155;DHT22;566;48.414;9.118;2023-08-08T17:57:42;18.70;80.00
1155;DHT22;566;48.414;9.118;2023-08-08T18:00:08;18.70;80.10
1155;DHT22;566;48.414;9.118;2023-08-08T18:02:35;18.80;80.20
1155;DHT22;566;48.414;9.118;2023-08-08T18:05:01;19.00;79.80
1155;DHT22;566;48.414;9.118;2023-08-08T18:07:26;19.30;79.10
1155;DHT22;566;48.414;9.118;2023-08-08T18:09:55;19.30;79.10
1155;DHT22;566;48.414;9.118;2023-08-08T18:12:21;19.20;79.10
1155;DHT22;566;48.414;9.118;2023-08-08T18:14:46;18.90;79.90
1155;DHT22;566;48.414;9.118;2023-08-08T18:17:14;18.60;80.40
1155;DHT22;566;48.414;9.118;2023-08-08T18:19:39;18.40;81.40
1155;DHT22;566;48.414;9.118;2023-08-08T18:22:05;18.30;81.90
1155;DHT22;566;48.414;9.118;2023-08-08T18:24:31;18.10;82.40
1155;DHT22;566;48.414;9.118;2023-08-08T18:26:57;17.90;82.80
1155;DHT22;566;48.414;9.118;2023-08-08T18:29:22;17.60;83.60
1155;DHT22;566;48.414;9.118;2023-08-08T18:31:48;17.40;84.30
1155;DHT22;566;48.414;9.118;2023-08-08T18:34:14;17.20;85.10
1155;DHT22;566;48.414;9.118;2023-08-08T18:36:39;17.10;85.30
1155;DHT22;566;48.414;9.118;2023-08-08T18:39:05;17.00;86.40
1155;DHT22;566;48.414;9.118;2023-08-08T18:41:31;17.10;87.00
1155;DHT22;566;48.414;9.118;2023-08-08T18:43:57;17.00;87.30
1155;DHT22;566;48.414;9.118;2023-08-08T18:46:22;17.00;87.90
1155;DHT22;566;48.414;9.118;2023-08-08T18:48:48;16.70;88.30
1155;DHT22;566;48.414;9.118;2023-08-08T18:51:13;16.40;89.50
1155;DHT22;566;48.414;9.118;2023-08-08T18:53:42;16.30;89.40
1155;DHT22;566;48.414;9.118;2023-08-08T18:56:07;16.20;90.20
1155;DHT22;566;48.414;9.118;2023-08-08T18:58:33;16.10;90.50
1155;DHT22;566;48.414;9.118;2023-08-08T19:01:02;16.00;90.60
1155;DHT22;566;48.414;9.118;2023-08-08T19:03:29;15.90;91.10
1155;DHT22;566;48.414;9.118;2023-08-08T19:05:55;15.80;91.50
1155;DHT22;566;48.414;9.118;2023-08-08T19:08:20;15.60;92.30
1155;DHT22;566;48.414;9.118;2023-08-08T19:10:46;15.60;92.10
1155;DHT22;566;48.414;9.118;2023-08-08T19:13:11;15.70;92.30
1155;DHT22;566;48.414;9.118;2023-08-08T19:15:37;15.60;92.60
1155;DHT22;566;48.414;9.118;2023-08-08T19:18:03;15.70;93.90
1155;DHT22;566;48.414;9.118;2023-08-08T19:20:29;15.70;94.20
1155;DHT22;566;48.414;9.118;2023-08-08T19:22:54;15.70;94.70
1155;DHT22;566;48.414;9.118;2023-08-08T19:25:21;15.60;94.70
1155;DHT22;566;48.414;9.118;2023-08-08T19:27:47;15.50;95.30
1155;DHT22;566;48.414;9.118;2023-08-08T19:30:16;15.40;95.20
1155;DHT22;566;48.414;9.118;2023-08-08T19:32:41;15.50;95.40
1155;DHT22;566;48.414;9.118;2023-08-08T19:35:07;15.50;95.90
1155;DHT22;566;48.414;9.118;2023-08-08T19:37:33;15.40;95.70
1155;DHT22;566;48.414;9.118;2023-08-08T19:39:58;15.30;95.70
1155;DHT22;566;48.414;9.118;2023-08-08T19:42:24;15.30;95.70
1155;DHT22;566;48.414;9.118;2023-08-08T19:44:49;15.30;96.00
1155;DHT22;566;48.414;9.118;2023-08-08T19:47:15;15.20;96.00
1155;DHT22;566;48.414;9.118;2023-08-08T19:49:41;15.20;95.70
1155;DHT22;566;48.414;9.118;2023-08-08T19:52:08;15.20;95.40
1155;DHT22;566;48.414;9.118;2023-08-08T19:54:37;15.30;96.40
1155;DHT22;566;48.414;9.118;2023-08-08T19:57:03;15.20;96.40